sensor_id;sensor_type;location;lat;lon;timestamp;P1;durP1;ratioP1;P2;durP2;ratioP2
28068;SDS011;15382;47.578;8.086;2022-08-01T00:08:59;5.20;;;2.03;;
28068;SDS011;15382;47.578;8.086;2022-08-01T00:19:00;3.57;;;2.37;;
28068;SDS011;15382;47.578;8.086;2022-08-01T00:29:01;5.03;;;2.20;;
28068;SDS011;15382;47.578;8.086;2022-08-01T00:39:01;3.33;;;2.00;;
28068;SDS011;15382;47.578;8.086;2022-08-01T00:49:02;4.00;;;2.00;;
28068;SDS011;15382;47.578;8.086;2022-08-01T00:59:03;7.53;;;2.50;;
28068;SDS011;15382;47.578;8.086;2022-08-01T01:19:20;4.00;;;1.70;;
28068;SDS011;15382;47.578;8.086;2022-08-01T01:29:28;7.18;;;3.38;;
28068;SDS011;15382;47.578;8.086;2022-08-01T01:39:41;2.42;;;1.60;;
28068;SDS011;15382;47.578;8.086;2022-08-01T01:49:44;4.72;;;2.63;;
28068;SDS011;15382;47.578;8.086;2022-08-01T01:59:47;4.80;;;1.77;;
28068;SDS011;15382;47.578;8.086;2022-08-01T02:09:51;5.13;;;2.75;;
28068;SDS011;15382;47.578;8.086;2022-08-01T02:19:54;4.70;;;2.53;;
28068;SDS011;15382;47.578;8.086;2022-08-01T02:29:58;4.05;;;2.00;;
28068;SDS011;15382;47.578;8.086;2022-08-01T02:40:01;7.20;;;4.63;;
28068;SDS011;15382;47.578;8.086;2022-08-01T02:50:03;4.82;;;2.90;;
28068;SDS011;15382;47.578;8.086;2022-08-01T03:00:05;5.13;;;3.10;;
28068;SDS011;15382;47.578;8.086;2022-08-01T03:10:07;8.10;;;2.53;;
28068;SDS011;15382;47.578;8.086;2022-08-01T03:20:10;3.58;;;2.08;;
28068;SDS011;15382;47.578;8.086;2022-08-01T03:30:14;6.43;;;2.60;;
28068;SDS011;15382;47.578;8.086;2022-08-01T03:40:23;6.63;;;2.17;;
28068;SDS011;15382;47.578;8.086;2022-08-01T03:50:28;4.75;;;1.95;;
28068;SDS011;15382;47.578;8.086;2022-08-01T04:00:31;3.30;;;2.00;;
28068;SDS011;15382;47.578;8.086;2022-08-01T04:10:32;3.00;;;2.03;;
28068;SDS011;15382;47.578;8.086;2022-08-01T04:20:33;3.33;;;1.87;;
28068;SDS011;15382;47.578;8.086;2022-08-01T04:30:34;2.63;;;1.70;;
28068;SDS011;15382;47.578;8.086;2022-08-01T04:40:37;3.65;;;2.53;;
28068;SDS011;15382;47.578;8.086;2022-08-01T04:50:45;3.22;;;2.00;;
28068;SDS011;15382;47.578;8.086;2022-08-01T05:00:46;3.00;;;1.97;;
28068;SDS011;15382;47.578;8.086;2022-08-01T05:10:47;8.70;;;2.83;;
28068;SDS011;15382;47.578;8.086;2022-08-01T05:20:48;5.00;;;3.17;;
28068;SDS011;15382;47.578;8.086;2022-08-01T05:30:49;3.23;;;1.93;;
28068;SDS011;15382;47.578;8.086;2022-08-01T05:40:50;3.27;;;2.63;;
28068;SDS011;15382;47.578;8.086;2022-08-01T05:50:51;5.57;;;2.50;;
28068;SDS011;15382;47.578;8.086;2022-08-01T06:00:51;6.20;;;2.30;;
28068;SDS011;15382;47.578;8.086;2022-08-01T06:10:52;3.27;;;2.40;;
28068;SDS011;15382;47.578;8.086;2022-08-01T06:20:54;4.55;;;2.25;;
28068;SDS011;15382;47.578;8.086;2022-08-01T06:30:55;3.13;;;2.13;;
28068;SDS011;15382;47.578;8.086;2022-08-01T06:40:55;2.17;;;1.80;;
28068;SDS011;15382;47.578;8.086;2022-08-01T06:50:56;4.03;;;1.97;;
28068;SDS011;15382;47.578;8.086;2022-08-01T07:01:11;3.15;;;1.75;;
28068;SDS011;15382;47.578;8.086;2022-08-01T07:11:12;3.37;;;1.90;;
28068;SDS011;15382;47.578;8.086;2022-08-01T07:21:13;3.10;;;1.83;;
28068;SDS011;15382;47.578;8.086;2022-08-01T07:31:14;6.10;;;2.40;;
28068;SDS011;15382;47.578;8.086;2022-08-01T07:51:15;5.45;;;1.60;;
28068;SDS011;15382;47.578;8.086;2022-08-01T08:01:16;2.83;;;2.10;;
28068;SDS011;15382;47.578;8.086;2022-08-01T08:11:17;3.97;;;1.95;;
28068;SDS011;15382;47.578;8.086;2022-08-01T08:21:18;6.45;;;2.13;;
28068;SDS011;15382;47.578;8.086;2022-08-01T08:31:19;3.45;;;2.10;;
28068;SDS011;15382;47.578;8.086;2022-08-01T08:41:21;5.70;;;2.00;;
28068;SDS011;15382;47.578;8.086;2022-08-01T08:51:23;2.95;;;1.80;;
28068;SDS011;15382;47.578;8.086;2022-08-01T09:01:27;2.53;;;1.60;;
28068;SDS011;15382;47.578;8.086;2022-08-01T09:11:28;2.47;;;1.77;;
28068;SDS011;15382;47.578;8.086;2022-08-01T09:21:29;2.30;;;1.48;;
28068;SDS011;15382;47.578;8.086;2022-08-01T09:31:38;1.92;;;1.40;;
28068;SDS011;15382;47.578;8.086;2022-08-01T09:41:41;5.20;;;1.10;;
28068;SDS011;15382;47.578;8.086;2022-08-01T09:51:42;3.72;;;1.73;;
28068;SDS011;15382;47.578;8.086;2022-08-01T10:11:49;2.80;;;1.63;;
28068;SDS011;15382;47.578;8.086;2022-08-01T10:21:51;2.15;;;1.23;;
28068;SDS011;15382;47.578;8.086;2022-08-01T10:31:53;3.10;;;0.60;;
28068;SDS011;15382;47.578;8.086;2022-08-01T10:41:55;4.40;;;1.33;;
28068;SDS011;15382;47.578;8.086;2022-08-01T10:51:56;2.28;;;0.52;;
28068;SDS011;15382;47.578;8.086;2022-08-01T11:01:58;2.80;;;0.80;;
28068;SDS011;15382;47.578;8.086;2022-08-01T11:12:05;2.28;;;0.70;;
28068;SDS011;15382;47.578;8.086;2022-08-01T11:22:10;2.05;;;0.57;;
28068;SDS011;15382;47.578;8.086;2022-08-01T11:32:24;0.73;;;0.32;;
28068;SDS011;15382;47.578;8.086;2022-08-01T11:42:26;2.60;;;0.63;;
28068;SDS011;15382;47.578;8.086;2022-08-01T11:52:28;1.50;;;0.60;;
28068;SDS011;15382;47.578;8.086;2022-08-01T12:02:33;0.43;;;0.40;;
28068;SDS011;15382;47.578;8.086;2022-08-01T12:12:36;3.17;;;0.40;;
28068;SDS011;15382;47.578;8.086;2022-08-01T12:22:41;1.15;;;0.40;;
28068;SDS011;15382;47.578;8.086;2022-08-01T12:32:46;1.00;;;0.43;;
28068;SDS011;15382;47.578;8.086;2022-08-01T12:42:51;2.85;;;0.55;;
28068;SDS011;15382;47.578;8.086;2022-08-01T12:52:53;0.80;;;0.50;;
28068;SDS011;15382;47.578;8.086;2022-08-01T13:03:11;0.60;;;0.50;;
28068;SDS011;15382;47.578;8.086;2022-08-01T13:13:16;0.90;;;0.55;;
28068;SDS011;15382;47.578;8.086;2022-08-01T13:23:20;1.98;;;0.60;;
28068;SDS011;15382;47.578;8.086;2022-08-01T13:33:20;0.88;;;0.60;;
28068;SDS011;15382;47.578;8.086;2022-08-01T13:43:22;2.92;;;0.60;;
28068;SDS011;15382;47.578;8.086;2022-08-01T13:53:23;0.50;;;0.45;;
28068;SDS011;15382;47.578;8.086;2022-08-01T14:03:24;4.28;;;0.60;;
28068;SDS011;15382;47.578;8.086;2022-08-01T14:13:25;2.08;;;0.73;;
28068;SDS011;15382;47.578;8.086;2022-08-01T14:23:26;0.90;;;0.70;;
28068;SDS011;15382;47.578;8.086;2022-08-01T14:33:27;0.85;;;0.80;;
28068;SDS011;15382;47.578;8.086;2022-08-01T14:43:28;2.25;;;1.00;;
28068;SDS011;15382;47.578;8.086;2022-08-01T14:53:31;1.98;;;1.50;;
28068;SDS011;15382;47.578;8.086;2022-08-01T15:03:32;2.00;;;0.90;;
28068;SDS011;15382;47.578;8.086;2022-08-01T15:13:33;2.40;;;0.93;;
28068;SDS011;15382;47.578;8.086;2022-08-01T15:23:34;1.15;;;0.73;;
28068;SDS011;15382;47.578;8.086;2022-08-01T15:33:35;0.60;;;0.60;;
28068;SDS011;15382;47.578;8.086;2022-08-01T15:43:36;1.02;;;0.80;;
28068;SDS011;15382;47.578;8.086;2022-08-01T15:53:36;2.88;;;1.00;;
28068;SDS011;15382;47.578;8.086;2022-08-01T16:03:37;1.00;;;0.90;;
28068;SDS011;15382;47.578;8.086;2022-08-01T16:13:38;3.45;;;0.90;;
28068;SDS011;15382;47.578;8.086;2022-08-01T16:23:39;4.60;;;0.95;;
28068;SDS011;15382;47.578;8.086;2022-08-01T16:33:41;1.52;;;0.90;;
28068;SDS011;15382;47.578;8.086;2022-08-01T16:43:42;2.03;;;0.95;;
28068;SDS011;15382;47.578;8.086;2022-08-01T16:53:43;3.47;;;1.13;;
28068;SDS011;15382;47.578;8.086;2022-08-01T17:03:44;2.55;;;1.02;;
28068;SDS011;15382;47.578;8.086;2022-08-01T17:13:45;2.75;;;1.20;;
28068;SDS011;15382;47.578;8.086;2022-08-01T17:23:46;1.52;;;1.00;;
28068;SDS011;15382;47.578;8.086;2022-08-01T17:33:47;2.35;;;1.10;;
28068;SDS011;15382;47.578;8.086;2022-08-01T17:43:48;2.28;;;0.90;;
28068;SDS011;15382;47.578;8.086;2022-08-01T17:53:49;4.80;;;1.05;;
28068;SDS011;15382;47.578;8.086;2022-08-01T18:03:50;4.53;;;1.20;;
28068;SDS011;15382;47.578;8.086;2022-08-01T18:13:52;4.15;;;1.13;;
28068;SDS011;15382;47.578;8.086;2022-08-01T18:23:53;1.33;;;1.08;;
28068;SDS011;15382;47.578;8.086;2022-08-01T18:33:53;1.95;;;1.23;;
28068;SDS011;15382;47.578;8.086;2022-08-01T18:43:54;2.35;;;1.17;;
28068;SDS011;15382;47.578;8.086;2022-08-01T18:53:55;6.57;;;1.83;;
28068;SDS011;15382;47.578;8.086;2022-08-01T19:03:56;22.35;;;4.35;;
28068;SDS011;15382;47.578;8.086;2022-08-01T19:13:57;6.60;;;1.98;;
28068;SDS011;15382;47.578;8.086;2022-08-01T19:23:58;29.70;;;3.17;;
28068;SDS011;15382;47.578;8.086;2022-08-01T19:34:19;5.90;;;2.92;;
28068;SDS011;15382;47.578;8.086;2022-08-01T19:44:22;100.93;;;7.80;;
28068;SDS011;15382;47.578;8.086;2022-08-01T19:54:25;7.32;;;2.53;;
28068;SDS011;15382;47.578;8.086;2022-08-01T20:04:29;6.88;;;2.63;;
28068;SDS011;15382;47.578;8.086;2022-08-01T20:35:42;2.95;;;1.90;;
28068;SDS011;15382;47.578;8.086;2022-08-01T20:45:44;1.95;;;1.50;;
28068;SDS011;15382;47.578;8.086;2022-08-01T20:55:49;3.25;;;1.95;;
28068;SDS011;15382;47.578;8.086;2022-08-01T21:05:59;2.17;;;1.58;;
28068;SDS011;15382;47.578;8.086;2022-08-01T21:16:07;2.43;;;1.77;;
28068;SDS011;15382;47.578;8.086;2022-08-01T21:26:10;5.88;;;1.90;;
28068;SDS011;15382;47.578;8.086;2022-08-01T21:46:27;5.93;;;1.70;;
28068;SDS011;15382;47.578;8.086;2022-08-01T21:56:39;5.97;;;2.03;;
28068;SDS011;15382;47.578;8.086;2022-08-01T22:06:47;4.03;;;1.98;;
28068;SDS011;15382;47.578;8.086;2022-08-01T22:16:48;4.10;;;1.75;;
28068;SDS011;15382;47.578;8.086;2022-08-01T22:26:50;2.25;;;1.52;;
28068;SDS011;15382;47.578;8.086;2022-08-01T22:36:53;3.50;;;2.08;;
28068;SDS011;15382;47.578;8.086;2022-08-01T22:46:59;7.95;;;2.10;;
28068;SDS011;15382;47.578;8.086;2022-08-01T22:57:27;8.30;;;2.10;;
28068;SDS011;15382;47.578;8.086;2022-08-01T23:07:31;8.05;;;2.20;;
28068;SDS011;15382;47.578;8.086;2022-08-01T23:17:34;3.63;;;2.05;;
28068;SDS011;15382;47.578;8.086;2022-08-01T23:27:37;5.07;;;2.33;;
28068;SDS011;15382;47.578;8.086;2022-08-01T23:37:39;2.97;;;2.17;;
28068;SDS011;15382;47.578;8.086;2022-08-01T23:47:40;6.67;;;2.53;;
28068;SDS011;15382;47.578;8.086;2022-08-01T23:57:41;2.47;;;1.93;;
